Abiquiu, New Mexico
Current Conditions -  °F | °C
As of 9:35 AM on Tuesday 27 Jan 2015 (Local Time) from KLAM Reporting Station
Clear Clear  
Wind Chill: 38°   Ceiling: Unl
Heat Index: 41°   Visibility: 10mi
Dew Point: 26°   Wind: 5mph
Humidity: 55%   Direction: 50°NE
Pressure: 30.4"   Gusts: NA
Location:  36.21°N, 106.32°W
Report Text: KLAM 271635Z AUTO 05004KT 10SM CLR 05/M03 A3040 RMK AO2 T00511034
Loading
Personal Weather Stations






























Interactive Weather Map New forecast layout! Learn more

10-Day Weather Forecast

Advertisements
Track Severe Weather on mobile